Lowest pressure

Not for real navigation. The accuracy of this data is not assured See disclaimer for more information



ICAO NAME COUNTRY WIND Kt GUST Kt VIS m TEMP/DEW C BARO METAR
PAUT 6 0 16000 8/8 28.84 PAUT 150755Z AUTO 07006KT 10SM -DZ SCT014 BKN020 OVC049 08/08 A2884 RMK AO2 P0002 T00810078
PADU Unalaska, Unalaska Airport AK United States 5 0 16000 8/7 28.85 PADU 150756Z AUTO 36005KT 10SM BKN016 BKN025 OVC038 08/07 A2885 RMK AO2 SLP772 T00830072
SCCI Punta Arenas Chile 15 0 9999 5/4 28.85 SCCI 150800Z 04015KT 9999 -RA SCT006 OVC013 05/04 Q0977 NOSIG
SAWG Rio Gallegos Aerodrome Argentina 16 0 9999 7/-5 28.85 SAWG 150700Z 02016KT 9999 SCT030 BKN050 07/M05 Q0977
PAKF 14 22 9600 10/8 28.90 PAKF 150756Z AUTO 12014G22KT 6SM -RA BR OVC010 10/08 A2890 RMK AO2 RAB04 SLP788 T01000083 PNO $

Show more